Wheatfield, New York
Current Conditions -  °F | °C
As of 8:27 AM on Friday 28 Nov 2014 (Local Time) from KIAG Reporting Station
Light Snow Light Snow  
Wind Chill:   Ceiling: 2600
Heat Index: 21°   Visibility: 2mi
Dew Point: 14°   Wind: 17mph
Humidity: 74%   Direction: 270°W
Pressure: 30.26"   Gusts: NA
Location:  43.1007°N, 78.9485°W
Report Text: KIAG 281327Z 27015KT 2SM -SN BKN026 OVC040 M06/M10 A3026 RMK AO2 VIS S 5 P0000 T10611100
Loading
Personal Weather Stations






























Interactive Weather Map New forecast layout! Learn more

10-Day Weather Forecast

Advertisements
Track Severe Weather on mobile